createdAt,value
2022-08-07T00:01:44.206Z,16.60
2022-08-07T00:04:09.334Z,16.70
2022-08-07T00:06:45.533Z,16.70
2022-08-07T00:09:22.236Z,16.70
2022-08-07T00:11:56.119Z,16.90
2022-08-07T00:14:30.913Z,16.80
2022-08-07T00:17:02.990Z,16.70
2022-08-07T00:19:34.479Z,17.00
2022-08-07T00:22:24.470Z,17.00
2022-08-07T00:25:05.379Z,17.10
2022-08-07T00:27:51.973Z,16.90
2022-08-07T00:30:27.915Z,16.90
2022-08-07T00:32:58.572Z,16.90
2022-08-07T00:35:27.307Z,16.80
2022-08-07T00:37:58.791Z,16.70
2022-08-07T00:40:39.798Z,16.70
2022-08-07T00:43:14.021Z,16.80
2022-08-07T00:45:57.917Z,16.60
2022-08-07T00:48:32.166Z,16.80
2022-08-07T00:51:02.623Z,16.50
2022-08-07T00:53:38.797Z,16.70
2022-08-07T00:56:18.393Z,16.80
2022-08-07T00:58:49.606Z,16.70
2022-08-07T01:01:20.296Z,16.60
2022-08-07T01:03:56.439Z,16.60
2022-08-07T01:06:28.644Z,16.60
2022-08-07T01:09:00.802Z,16.50
2022-08-07T01:12:27.439Z,16.40
2022-08-07T01:14:21.421Z,16.20
2022-08-07T01:16:57.874Z,16.20
2022-08-07T01:19:32.263Z,16.00
2022-08-07T01:22:03.675Z,15.90
2022-08-07T01:24:37.489Z,15.90
2022-08-07T01:27:06.210Z,15.80
2022-08-07T01:29:47.968Z,15.70
2022-08-07T01:32:19.563Z,15.80
2022-08-07T01:34:51.896Z,15.80
2022-08-07T01:37:22.047Z,15.80
2022-08-07T01:39:50.350Z,15.70
2022-08-07T01:42:40.044Z,15.70
2022-08-07T01:45:09.713Z,15.70
2022-08-07T01:48:20.332Z,15.80
2022-08-07T01:50:29.046Z,15.80
2022-08-07T01:53:01.394Z,15.80
2022-08-07T01:55:43.346Z,15.70
2022-08-07T01:58:29.065Z,15.60
2022-08-07T02:01:10.117Z,15.60
2022-08-07T02:04:00.970Z,15.50
2022-08-07T02:06:32.629Z,15.50
2022-08-07T02:09:05.838Z,15.50
2022-08-07T02:12:03.527Z,15.40
2022-08-07T02:14:36.191Z,15.30
2022-08-07T02:17:09.931Z,15.20
2022-08-07T02:20:07.383Z,15.20
2022-08-07T02:22:32.707Z,15.20
2022-08-07T02:25:07.110Z,15.10
2022-08-07T02:27:44.251Z,15.30
2022-08-07T02:30:20.587Z,15.20
2022-08-07T02:33:00.985Z,15.10
2022-08-07T02:36:28.945Z,15.10
2022-08-07T02:38:31.665Z,15.10
2022-08-07T02:41:03.724Z,15.00
2022-08-07T02:43:33.869Z,15.10
2022-08-07T02:46:04.005Z,15.20
2022-08-07T02:48:32.231Z,15.40
2022-08-07T02:51:29.040Z,15.20
2022-08-07T02:53:58.914Z,15.10
2022-08-07T02:56:31.778Z,15.20
2022-08-07T02:59:01.993Z,15.20
2022-08-07T03:01:35.714Z,15.20
2022-08-07T03:04:07.601Z,15.20
2022-08-07T03:06:41.444Z,15.20
2022-08-07T03:09:11.321Z,15.10
2022-08-07T03:11:52.441Z,15.00
2022-08-07T03:14:27.760Z,15.00
2022-08-07T03:16:57.131Z,15.10
2022-08-07T03:19:29.080Z,15.00
2022-08-07T03:21:58.732Z,14.90
2022-08-07T03:24:28.137Z,14.90
2022-08-07T03:27:01.701Z,14.90
2022-08-07T03:29:36.792Z,14.80
2022-08-07T03:32:12.900Z,14.80
2022-08-07T03:34:47.247Z,14.70
2022-08-07T03:37:32.852Z,14.60
2022-08-07T03:40:15.023Z,14.60
2022-08-07T03:42:46.275Z,14.60
2022-08-07T03:45:30.371Z,15.00
2022-08-07T03:48:00.432Z,14.90
2022-08-07T03:50:29.884Z,14.90
2022-08-07T03:53:00.396Z,14.90
2022-08-07T03:55:53.378Z,15.10
2022-08-07T03:59:05.042Z,14.90
2022-08-07T04:01:11.854Z,14.80
2022-08-07T04:03:49.779Z,14.70
2022-08-07T04:06:37.830Z,14.60
2022-08-07T04:09:08.333Z,14.50
2022-08-07T04:12:26.571Z,15.00
2022-08-07T04:14:37.312Z,15.10
2022-08-07T04:17:20.336Z,14.90
2022-08-07T04:19:52.291Z,14.80
2022-08-07T04:22:23.404Z,14.70
2022-08-07T04:24:57.923Z,14.70
2022-08-07T04:27:26.833Z,14.70
2022-08-07T04:30:02.082Z,15.10
2022-08-07T04:32:33.935Z,15.70
2022-08-07T04:35:05.552Z,16.40
2022-08-07T04:37:40.424Z,17.00
2022-08-07T04:40:26.710Z,17.50
2022-08-07T04:43:02.279Z,17.50
2022-08-07T04:46:00.221Z,17.20
2022-08-07T04:48:36.758Z,16.80
2022-08-07T04:51:09.589Z,16.50
2022-08-07T04:54:01.435Z,16.20
2022-08-07T04:58:10.442Z,16.00
2022-08-07T05:00:09.838Z,15.80
2022-08-07T05:02:29.045Z,15.70
2022-08-07T05:05:01.775Z,15.70
2022-08-07T05:07:48.695Z,15.70
2022-08-07T05:10:28.487Z,15.80
2022-08-07T05:14:39.174Z,15.90
2022-08-07T05:15:51.931Z,16.00
2022-08-07T05:18:30.735Z,16.00
2022-08-07T05:21:04.007Z,16.10
2022-08-07T05:23:39.797Z,16.20
2022-08-07T05:26:18.883Z,16.20
2022-08-07T05:28:57.384Z,16.30
2022-08-07T05:31:34.573Z,16.40
2022-08-07T05:34:10.969Z,16.50
2022-08-07T05:36:41.378Z,16.60
2022-08-07T05:40:06.323Z,16.70
2022-08-07T05:42:01.664Z,16.80
2022-08-07T05:44:35.243Z,16.90
2022-08-07T05:47:18.148Z,16.90
2022-08-07T05:49:50.467Z,16.90
2022-08-07T05:52:20.381Z,17.00
2022-08-07T05:54:55.411Z,17.10
2022-08-07T05:57:30.482Z,17.20
2022-08-07T06:00:03.428Z,17.30
2022-08-07T06:02:38.075Z,17.20
2022-08-07T06:05:17.507Z,17.20
2022-08-07T06:08:14.885Z,17.30
2022-08-07T06:10:39.649Z,17.50
2022-08-07T06:13:15.487Z,17.60
2022-08-07T06:15:46.810Z,17.80
2022-08-07T06:18:18.927Z,17.80
2022-08-07T06:20:50.241Z,17.90
2022-08-07T06:24:37.815Z,18.00
2022-08-07T06:26:27.360Z,18.10
2022-08-07T06:28:58.891Z,18.10
2022-08-07T06:31:38.806Z,18.10
2022-08-07T06:34:15.910Z,18.30
2022-08-07T06:36:51.917Z,18.50
2022-08-07T06:40:16.668Z,18.80
2022-08-07T06:42:11.847Z,19.40
2022-08-07T06:44:43.188Z,19.60
2022-08-07T06:47:15.178Z,19.60
2022-08-07T06:49:51.702Z,20.40
2022-08-07T06:52:32.859Z,21.80
2022-08-07T06:55:32.699Z,23.70
2022-08-07T06:57:59.228Z,25.20
2022-08-07T07:00:29.376Z,26.10
2022-08-07T07:03:01.371Z,27.00
2022-08-07T07:06:03.514Z,27.40
2022-08-07T07:08:33.573Z,28.20
2022-08-07T07:11:14.008Z,28.50
2022-08-07T07:14:01.592Z,28.30
2022-08-07T07:16:45.140Z,27.90
2022-08-07T07:19:55.652Z,28.10
2022-08-07T07:22:36.435Z,28.80
2022-08-07T07:26:30.695Z,27.80
2022-08-07T07:28:03.308Z,28.40
2022-08-07T07:30:40.074Z,29.20
2022-08-07T07:33:12.108Z,29.80
2022-08-07T07:36:04.819Z,29.90
2022-08-07T07:38:35.992Z,30.20
2022-08-07T07:41:09.703Z,30.50
2022-08-07T07:44:14.297Z,30.10
2022-08-07T07:46:40.189Z,30.10
2022-08-07T07:50:35.168Z,29.60
2022-08-07T07:52:12.835Z,29.00
2022-08-07T07:54:50.788Z,29.20
2022-08-07T07:57:50.535Z,28.70
2022-08-07T08:00:21.055Z,29.20
2022-08-07T08:03:05.362Z,29.10
2022-08-07T08:05:53.583Z,28.30
2022-08-07T08:08:35.088Z,28.40
2022-08-07T08:11:08.489Z,29.30
2022-08-07T08:13:53.261Z,29.90
2022-08-07T08:16:30.054Z,30.10
2022-08-07T08:19:00.540Z,30.50
2022-08-07T08:22:07.941Z,29.80
2022-08-07T08:25:04.649Z,31.10
2022-08-07T08:27:56.633Z,30.70
2022-08-07T08:30:32.081Z,30.50
2022-08-07T08:33:10.322Z,30.80
2022-08-07T08:35:49.710Z,29.40
2022-08-07T08:38:21.582Z,29.40
2022-08-07T08:40:58.850Z,29.10
2022-08-07T08:43:42.003Z,29.50
2022-08-07T08:46:20.286Z,30.10
2022-08-07T08:48:58.434Z,30.30
2022-08-07T08:52:01.110Z,29.90
2022-08-07T08:54:26.268Z,29.50
2022-08-07T08:56:56.102Z,29.30
2022-08-07T08:59:29.363Z,29.40
2022-08-07T09:02:13.284Z,30.20
2022-08-07T09:04:48.310Z,31.00
2022-08-07T09:07:25.353Z,31.60
2022-08-07T09:10:02.553Z,31.50
2022-08-07T09:12:54.283Z,30.20
2022-08-07T09:16:22.376Z,30.00
2022-08-07T09:18:42.288Z,29.70
2022-08-07T09:21:33.742Z,30.00
2022-08-07T09:24:55.457Z,29.60
2022-08-07T09:27:54.640Z,30.60
2022-08-07T09:30:28.300Z,31.70
2022-08-07T09:33:16.780Z,31.00
2022-08-07T09:36:07.797Z,31.20
2022-08-07T09:38:50.209Z,32.00
2022-08-07T09:41:36.142Z,31.80
2022-08-07T09:44:32.815Z,30.90
2022-08-07T09:47:49.462Z,31.70
2022-08-07T09:50:19.889Z,31.50
2022-08-07T09:52:54.313Z,32.20
2022-08-07T09:55:36.955Z,32.70
2022-08-07T09:58:35.339Z,32.00
2022-08-07T10:01:51.795Z,31.80
2022-08-07T10:04:32.802Z,31.80
2022-08-07T10:07:25.816Z,32.50
2022-08-07T10:10:25.650Z,31.80
2022-08-07T10:13:55.250Z,31.60
2022-08-07T10:16:27.435Z,30.70
2022-08-07T10:19:20.167Z,30.40
2022-08-07T10:22:15.662Z,31.00
2022-08-07T10:25:23.038Z,31.80
2022-08-07T10:28:06.318Z,32.20
2022-08-07T10:30:52.404Z,32.20
2022-08-07T10:34:15.199Z,31.50
2022-08-07T10:36:39.900Z,31.90
2022-08-07T10:39:25.648Z,31.70
2022-08-07T10:42:31.247Z,31.70
2022-08-07T10:45:44.004Z,31.40
2022-08-07T10:48:25.975Z,30.70
2022-08-07T10:51:16.975Z,31.20
2022-08-07T10:54:05.335Z,32.00
2022-08-07T10:56:44.948Z,32.30
2022-08-07T10:59:30.329Z,32.10
2022-08-07T11:02:12.168Z,32.20
2022-08-07T11:05:12.524Z,32.30
2022-08-07T11:08:01.247Z,33.20
2022-08-07T11:10:39.354Z,32.80
2022-08-07T11:13:16.789Z,33.10
2022-08-07T11:16:09.412Z,32.80
2022-08-07T11:18:51.734Z,32.80
2022-08-07T11:21:31.905Z,32.40
2022-08-07T11:24:08.539Z,31.80
2022-08-07T11:26:43.445Z,31.30
2022-08-07T11:29:42.082Z,31.50
2022-08-07T11:32:25.873Z,31.70
2022-08-07T11:34:58.054Z,31.10
2022-08-07T11:37:58.479Z,30.10
2022-08-07T11:40:49.725Z,31.00
2022-08-07T11:43:29.703Z,31.10
2022-08-07T11:46:23.394Z,31.00
2022-08-07T11:49:50.625Z,30.60
2022-08-07T11:52:46.641Z,30.40
2022-08-07T11:56:25.585Z,29.80
2022-08-07T11:58:22.020Z,30.30
2022-08-07T12:01:20.332Z,30.30
2022-08-07T12:04:14.872Z,30.40
2022-08-07T12:07:00.368Z,30.40
2022-08-07T12:09:36.723Z,30.90
2022-08-07T12:12:11.634Z,31.40
2022-08-07T12:14:51.437Z,31.80
2022-08-07T12:17:29.015Z,31.50
2022-08-07T12:20:29.922Z,31.10
2022-08-07T12:24:05.893Z,30.80
2022-08-07T12:26:35.445Z,31.10
2022-08-07T12:29:14.065Z,31.00
2022-08-07T12:32:01.940Z,31.30
2022-08-07T12:34:34.585Z,31.20
2022-08-07T12:37:08.781Z,31.70
2022-08-07T12:39:50.613Z,32.50
2022-08-07T12:42:27.824Z,33.00
2022-08-07T12:44:58.952Z,32.10
2022-08-07T12:47:37.753Z,31.60
2022-08-07T12:50:34.201Z,31.30
2022-08-07T12:53:17.771Z,31.20
2022-08-07T12:56:02.437Z,31.50
2022-08-07T12:58:39.226Z,32.00
2022-08-07T13:01:15.710Z,32.50
2022-08-07T13:04:02.940Z,32.90
2022-08-07T13:07:02.172Z,32.90
2022-08-07T13:10:28.758Z,32.50
2022-08-07T13:12:57.484Z,31.70
2022-08-07T13:15:37.546Z,31.80
2022-08-07T13:18:26.539Z,32.00
2022-08-07T13:21:06.029Z,32.20
2022-08-07T13:24:03.973Z,32.80
2022-08-07T13:26:46.409Z,32.80
2022-08-07T13:29:21.172Z,33.10
2022-08-07T13:31:59.838Z,33.20
2022-08-07T13:34:39.217Z,32.50
2022-08-07T13:37:21.534Z,32.20
2022-08-07T13:40:34.067Z,32.70
2022-08-07T13:42:52.736Z,32.70
2022-08-07T13:46:11.142Z,32.80
2022-08-07T13:48:20.819Z,32.90
2022-08-07T13:51:01.843Z,32.80
2022-08-07T13:54:00.264Z,32.70
2022-08-07T13:56:36.105Z,32.40
2022-08-07T13:59:13.464Z,32.20
2022-08-07T14:02:03.528Z,32.60
2022-08-07T14:04:47.467Z,33.10
2022-08-07T14:07:21.107Z,32.30
2022-08-07T14:10:01.423Z,32.30
2022-08-07T14:12:41.831Z,33.00
2022-08-07T14:15:28.071Z,32.80
2022-08-07T14:18:23.754Z,32.80
2022-08-07T14:21:08.399Z,32.80
2022-08-07T14:24:00.943Z,32.40
2022-08-07T14:26:36.974Z,32.30
2022-08-07T14:30:06.199Z,32.90
2022-08-07T14:32:01.267Z,33.10
2022-08-07T14:34:31.701Z,34.00
2022-08-07T14:37:03.544Z,33.00
2022-08-07T14:40:17.552Z,32.70
2022-08-07T14:42:27.525Z,32.90
2022-08-07T14:45:21.340Z,32.60
2022-08-07T14:47:53.109Z,32.90
2022-08-07T14:50:28.096Z,32.80
2022-08-07T14:53:07.773Z,33.10
2022-08-07T14:55:55.294Z,33.50
2022-08-07T14:58:28.817Z,33.80
2022-08-07T15:01:00.174Z,33.40
2022-08-07T15:03:51.612Z,33.30
2022-08-07T15:06:25.741Z,33.60
2022-08-07T15:08:56.266Z,33.90
2022-08-07T15:11:53.290Z,34.50
2022-08-07T15:14:21.708Z,33.90
2022-08-07T15:16:55.839Z,33.70
2022-08-07T15:20:31.444Z,34.00
2022-08-07T15:22:31.360Z,33.80
2022-08-07T15:25:17.569Z,33.40
2022-08-07T15:28:32.416Z,32.50
2022-08-07T15:31:05.135Z,32.70
2022-08-07T15:33:34.022Z,33.10
2022-08-07T15:37:02.475Z,32.60
2022-08-07T15:39:15.893Z,32.60
2022-08-07T15:42:44.541Z,32.80
2022-08-07T15:44:52.549Z,33.10
2022-08-07T15:47:59.995Z,33.20
2022-08-07T15:50:37.689Z,33.30
2022-08-07T15:53:09.076Z,33.10
2022-08-07T15:56:01.892Z,32.70
2022-08-07T15:58:36.966Z,32.40
2022-08-07T16:01:14.361Z,32.20
2022-08-07T16:03:54.416Z,32.40
2022-08-07T16:06:31.636Z,32.20
2022-08-07T16:09:04.177Z,32.30
2022-08-07T16:11:52.713Z,31.80
2022-08-07T16:14:46.095Z,31.80
2022-08-07T16:18:01.865Z,31.60
2022-08-07T16:20:33.663Z,31.60
2022-08-07T16:23:53.441Z,31.40
2022-08-07T16:26:33.777Z,31.40
2022-08-07T16:30:06.067Z,31.30
2022-08-07T16:32:32.998Z,31.50
2022-08-07T16:35:51.701Z,31.40
2022-08-07T16:38:29.578Z,31.30
2022-08-07T16:41:41.757Z,31.30
2022-08-07T16:45:04.174Z,31.60
2022-08-07T16:47:55.877Z,31.40
2022-08-07T16:51:21.801Z,31.10
2022-08-07T16:54:22.174Z,30.90
2022-08-07T16:57:28.824Z,30.80
2022-08-07T17:00:17.353Z,30.70
2022-08-07T17:03:19.217Z,30.50
2022-08-07T17:06:30.182Z,30.40
2022-08-07T17:09:14.151Z,30.60
2022-08-07T17:12:05.196Z,30.80
2022-08-07T17:14:54.750Z,30.50
2022-08-07T17:17:44.180Z,30.30
2022-08-07T17:20:31.942Z,29.90
2022-08-07T17:23:08.608Z,29.30
2022-08-07T17:25:52.804Z,28.80
2022-08-07T17:28:49.899Z,28.20
2022-08-07T17:31:23.649Z,27.80
2022-08-07T17:34:15.002Z,27.50
2022-08-07T17:36:59.995Z,27.30
2022-08-07T17:39:57.831Z,27.10
2022-08-07T17:42:59.123Z,27.00
2022-08-07T17:45:34.889Z,26.90
2022-08-07T17:48:11.291Z,26.80
2022-08-07T17:50:52.488Z,26.70
2022-08-07T17:54:01.419Z,26.50
2022-08-07T17:56:33.661Z,26.50
2022-08-07T17:59:16.831Z,26.40
2022-08-07T18:01:56.619Z,26.40
2022-08-07T18:04:34.826Z,26.30
2022-08-07T18:07:20.985Z,26.20
2022-08-07T18:10:06.197Z,26.10
2022-08-07T18:12:49.639Z,26.00
2022-08-07T18:15:23.833Z,26.00
2022-08-07T18:18:47.361Z,25.80
2022-08-07T18:21:37.277Z,25.60
2022-08-07T18:24:02.496Z,25.50
2022-08-07T18:26:59.278Z,25.40
2022-08-07T18:30:04.487Z,25.20
2022-08-07T18:32:46.216Z,25.10
2022-08-07T18:35:21.575Z,25.00
2022-08-07T18:38:58.987Z,24.90
2022-08-07T18:41:09.968Z,24.70
2022-08-07T18:43:57.719Z,24.60
2022-08-07T18:46:34.035Z,24.50
2022-08-07T18:50:32.315Z,24.40
2022-08-07T18:52:37.675Z,24.30
2022-08-07T18:55:41.056Z,24.10
2022-08-07T18:58:23.397Z,24.10
2022-08-07T19:01:06.739Z,24.00
2022-08-07T19:03:45.494Z,23.90
2022-08-07T19:06:21.597Z,23.90
2022-08-07T19:09:55.902Z,23.90
2022-08-07T19:12:15.566Z,23.80
2022-08-07T19:16:03.331Z,23.60
2022-08-07T19:18:11.417Z,23.50
2022-08-07T19:21:08.415Z,23.40
2022-08-07T19:23:59.340Z,23.30
2022-08-07T19:27:08.922Z,23.30
2022-08-07T19:31:01.229Z,23.00
2022-08-07T19:32:44.900Z,23.00
2022-08-07T19:35:19.686Z,23.00
2022-08-07T19:37:58.158Z,22.90
2022-08-07T19:40:31.889Z,22.90
2022-08-07T19:43:21.231Z,22.80
2022-08-07T19:46:04.673Z,22.70
2022-08-07T19:48:42.959Z,22.50
2022-08-07T19:51:20.508Z,22.50
2022-08-07T19:54:44.263Z,22.40
2022-08-07T19:58:01.512Z,22.30
2022-08-07T19:59:50.794Z,22.20
2022-08-07T20:02:30.335Z,22.10
2022-08-07T20:05:03.611Z,21.90
2022-08-07T20:07:47.840Z,21.90
2022-08-07T20:10:36.070Z,21.80
2022-08-07T20:13:22.456Z,21.70
2022-08-07T20:15:52.167Z,21.70
2022-08-07T20:18:33.040Z,21.70
2022-08-07T20:21:14.425Z,21.80
2022-08-07T20:23:57.624Z,21.60
2022-08-07T20:26:38.731Z,21.40
2022-08-07T20:29:49.018Z,21.20
2022-08-07T20:32:11.573Z,21.10
2022-08-07T20:34:52.598Z,21.60
2022-08-07T20:37:55.422Z,21.30
2022-08-07T20:40:32.384Z,21.30
2022-08-07T20:43:14.449Z,21.50
2022-08-07T20:46:26.516Z,21.50
2022-08-07T20:48:58.031Z,21.20
2022-08-07T20:51:30.782Z,21.20
2022-08-07T20:54:08.579Z,21.30
2022-08-07T20:56:51.628Z,21.10
2022-08-07T20:59:27.150Z,20.90
2022-08-07T21:02:38.463Z,20.80
2022-08-07T21:05:16.662Z,20.50
2022-08-07T21:07:49.526Z,20.70
2022-08-07T21:10:25.217Z,20.70
2022-08-07T21:13:05.978Z,20.90
2022-08-07T21:15:47.604Z,21.10
2022-08-07T21:18:31.992Z,20.90
2022-08-07T21:21:04.122Z,20.60
2022-08-07T21:23:50.634Z,20.50
2022-08-07T21:26:32.180Z,20.50
2022-08-07T21:29:15.763Z,20.20
2022-08-07T21:32:43.796Z,20.00
2022-08-07T21:34:48.440Z,19.90
2022-08-07T21:37:22.678Z,19.80
2022-08-07T21:39:56.834Z,19.70
2022-08-07T21:42:42.605Z,20.00
2022-08-07T21:46:05.219Z,20.00
2022-08-07T21:48:34.416Z,19.90
2022-08-07T21:51:20.125Z,19.70
2022-08-07T21:53:56.157Z,19.60
2022-08-07T21:56:42.408Z,19.40
2022-08-07T22:00:02.781Z,19.40
2022-08-07T22:02:28.447Z,19.30
2022-08-07T22:05:02.140Z,19.50
2022-08-07T22:07:57.865Z,19.50
2022-08-07T22:10:26.148Z,19.40
2022-08-07T22:12:56.755Z,19.50
2022-08-07T22:16:41.928Z,19.50
2022-08-07T22:18:25.532Z,19.30
2022-08-07T22:21:02.421Z,19.00
2022-08-07T22:23:40.545Z,18.90
2022-08-07T22:26:17.109Z,19.00
2022-08-07T22:28:53.618Z,18.90
2022-08-07T22:31:45.697Z,18.80
2022-08-07T22:34:29.125Z,18.90
2022-08-07T22:37:12.490Z,19.00
2022-08-07T22:39:52.606Z,19.20
2022-08-07T22:42:26.052Z,19.10
2022-08-07T22:45:02.368Z,19.20
2022-08-07T22:48:03.060Z,18.80
2022-08-07T22:50:55.419Z,18.50
2022-08-07T22:54:08.866Z,18.40
2022-08-07T22:56:42.169Z,18.30
2022-08-07T22:59:33.293Z,18.20
2022-08-07T23:02:16.404Z,18.20
2022-08-07T23:06:08.737Z,18.20
2022-08-07T23:08:07.260Z,18.50
2022-08-07T23:11:12.984Z,18.40
2022-08-07T23:14:15.463Z,18.20
2022-08-07T23:17:08.929Z,18.10
2022-08-07T23:20:10.235Z,18.00
2022-08-07T23:22:52.267Z,18.00
2022-08-07T23:25:33.459Z,18.00
2022-08-07T23:28:28.603Z,18.10
2022-08-07T23:31:13.902Z,17.90
2022-08-07T23:34:34.210Z,17.70
2022-08-07T23:37:20.011Z,17.50
2022-08-07T23:40:03.869Z,17.60
2022-08-07T23:43:01.869Z,17.70
2022-08-07T23:46:03.142Z,17.50
2022-08-07T23:48:53.011Z,17.60
2022-08-07T23:53:01.180Z,17.60
2022-08-07T23:54:36.160Z,17.50
2022-08-07T23:57:22.204Z,17.40
